Manti, Utah
Current Conditions -  °F | °C
As of 9:15 AM on Saturday 25 Oct 2014 (Local Time) from KDTA Reporting Station
Clear Clear  
Wind Chill: 60°   Ceiling: Unl
Heat Index: 60°   Visibility: 10mi
Dew Point: 29°   Wind: 7mph
Humidity: 30%   Direction: 190°S
Pressure: 30.14"   Gusts: NA
Location:  39.27°N, 111.64°W
Report Text: KDTA 251515Z AUTO 19006KT 10SM CLR 16/M02 A3014 RMK AO1 T01581017
Loading
Personal Weather Stations






























Interactive Weather Map New forecast layout! Learn more

10-Day Weather Forecast

Advertisements
Track Severe Weather on mobile